Dades de l'estació automàtica el Masroig

?
?

Resum diari

20:00 TU
Dades diàries de l'estació meteorològica
Temperatura mitjana 15.3 °C
Temperatura màxima 23.1 °C 14:28 TU
Temperatura mínima 7.9 °C 6:49 TU
Humitat relativa mitjana 62%
Precipitació acumulada 0.0 mm
Ratxa màxima del vent (2 m) 25.9 km/h - 309º 12:33 TU

El tram horari està expressat en Temps Universal (TU). Cal sumar una hora en horari d'hivern i dues en horari d'estiu per passar a l'hora oficial.

el Masroig

Metadades estació meteorològica
Municipi El Masroig
Comarca Priorat
Altitud 141 m
Data alta 20.06.2000
Estat actual Operativa
Dades de període
Període
TU
TM
°C
TX
°C
TN
°C
HRM
%
PPT
mm
VVM (2 m)
km/h
DVM (2 m)
graus
VVX (2 m)
km/h
00:00 - 00:30 8.8 9.1 8.3 71 0.0 3.2 119 6.5
00:30 - 01:00 9.2 9.5 9.0 71 0.0 2.9 122 6.1
01:00 - 01:30 9.6 9.8 9.4 71 0.0 3.2 120 6.5
01:30 - 02:00 9.6 9.8 9.5 72 0.0 3.2 114 5.4
02:00 - 02:30 9.4 9.5 9.3 75 0.0 3.6 110 5.8
02:30 - 03:00 9.4 9.7 9.2 75 0.0 4.0 125 6.8
03:00 - 03:30 9.8 10.0 9.7 75 0.0 4.0 124 6.5
03:30 - 04:00 10.0 10.4 9.6 75 0.0 3.2 116 6.5
04:00 - 04:30 9.5 9.7 9.2 77 0.0 2.9 119 5.0
04:30 - 05:00 9.1 9.3 8.8 79 0.0 3.2 116 5.4
05:00 - 05:30 8.7 8.8 8.6 81 0.0 2.9 118 5.0
05:30 - 06:00 8.3 8.5 8.1 82 0.0 3.2 120 5.0
06:00 - 06:30 8.0 8.1 7.9 83 0.0 2.5 114 4.3
06:30 - 07:00 8.2 9.0 7.9 83 0.0 2.9 114 4.7
07:00 - 07:30 10.2 11.8 9.1 76 0.0 2.5 126 4.7
07:30 - 08:00 13.4 14.9 11.8 65 0.0 1.8 135 3.6
08:00 - 08:30 15.3 16.6 14.7 58 0.0 0.7 168 4.0
08:30 - 09:00 17.4 18.0 16.8 52 0.0 1.4 243 5.0
09:00 - 09:30 18.1 18.8 17.3 50 0.0 1.8 297 6.1
09:30 - 10:00 19.4 20.0 18.7 47 0.0 2.9 288 13.0
10:00 - 10:30 20.4 20.8 20.1 46 0.0 4.7 312 13.0
10:30 - 11:00 20.3 20.6 20.1 46 0.0 6.8 332 17.3
11:00 - 11:30 20.7 21.3 20.3 46 0.0 5.8 334 15.5
11:30 - 12:00 21.2 22.0 20.6 45 0.0 5.0 290 15.1
12:00 - 12:30 21.9 22.4 21.6 43 0.0 5.4 303 16.9
12:30 - 13:00 21.5 21.8 21.1 45 0.0 7.6 306 25.9
13:00 - 13:30 21.7 22.0 21.4 46 0.0 6.1 316 16.6
13:30 - 14:00 22.3 22.7 21.9 44 0.0 5.4 321 16.6
14:00 - 14:30 22.7 23.1 22.3 45 0.0 7.2 310 18.7
14:30 - 15:00 22.6 23.1 22.3 45 0.0 5.4 318 16.2
15:00 - 15:30 22.8 22.9 22.6 44 0.0 4.7 307 11.2
15:30 - 16:00 22.8 23.0 22.6 45 0.0 5.0 295 12.2
16:00 - 16:30 21.8 22.6 21.4 47 0.0 4.0 307 11.5
16:30 - 17:00 20.7 21.4 19.7 50 0.0 2.5 299 6.5
17:00 - 17:30 18.6 19.6 17.7 56 0.0 0.7 117 2.9
17:30 - 18:00 16.6 17.7 15.5 62 0.0 1.4 126 4.3
18:00 - 18:30 15.0 15.4 14.6 67 0.0 2.9 117 5.4
18:30 - 19:00 13.8 14.5 13.3 70 0.0 4.0 117 6.5
19:00 - 19:30 13.0 13.3 12.7 73 0.0 3.2 108 5.4
19:30 - 20:00 12.2 13.1 11.8 76 0.0 3.6 117 6.5
20:00 - 20:30 11.9 13.1 11.6 77 0.0 4.0 119 7.6

Les dades en taronja només han passat un control de qualitat automàtic. Resta pendent la seva validació definitiva.